Time;durP1;ratioP1;P1;durP2;ratioP2;P2;SDS_P1;SDS_P2;PMS_P1;PMS_P2;Temp;Humidity;BMP_temperature;BMP_pressure;BME280_temperature;BME280_humidity;BME280_pressure;Samples;Min_cycle;Max_cycle;Signal;HPM_P1;HPM_P2
2021/05/09 00:02:14;;;;;;;4.10;3.30;;;6.30;86.00;;;;;;5158346;27;20027;-79
2021/05/09 00:04:40;;;;;;;5.55;3.80;;;6.30;86.10;;;;;;5158267;27;20027;-80
2021/05/09 00:07:06;;;;;;;5.65;3.42;;;6.30;86.10;;;;;;5158537;27;20110;-79
2021/05/09 00:09:32;;;;;;;5.22;3.90;;;6.30;86.20;;;;;;5158044;27;20452;-79
2021/05/09 00:11:58;;;;;;;6.53;3.90;;;6.20;86.20;;;;;;5157950;27;20094;-79
2021/05/09 00:14:24;;;;;;;7.80;4.40;;;6.20;86.30;;;;;;5158085;27;20448;-77
2021/05/09 00:16:50;;;;;;;8.02;4.43;;;6.20;86.40;;;;;;5157568;27;20031;-78
2021/05/09 00:19:16;;;;;;;8.20;4.50;;;6.20;86.50;;;;;;5157538;27;20026;-78
2021/05/09 00:21:41;;;;;;;6.53;4.30;;;6.10;86.60;;;;;;5157846;27;20106;-78
2021/05/09 00:24:08;;;;;;;5.00;4.10;;;6.10;86.60;;;;;;5157372;27;20468;-78
2021/05/09 00:26:34;;;;;;;7.32;3.80;;;6.10;86.70;;;;;;5157622;27;20023;-78
2021/05/09 00:29:00;;;;;;;5.95;4.00;;;6.10;86.80;;;;;;5157443;27;20361;-78
2021/05/09 00:31:26;;;;;;;6.38;4.25;;;6.00;86.80;;;;;;5157913;27;20060;-78
2021/05/09 00:33:52;;;;;;;7.07;4.75;;;6.00;86.90;;;;;;5138906;27;20038;-78
2021/05/09 00:36:18;;;;;;;4.88;3.95;;;6.00;87.00;;;;;;5157751;27;20027;-78
2021/05/09 00:38:43;;;;;;;5.68;4.30;;;6.00;87.00;;;;;;5157267;27;20041;-77
2021/05/09 00:41:09;;;;;;;6.47;4.40;;;6.00;87.20;;;;;;5157172;27;20022;-77
2021/05/09 00:43:35;;;;;;;7.78;4.00;;;5.90;87.10;;;;;;5157563;27;20030;-78
2021/05/09 00:46:00;;;;;;;7.43;4.15;;;5.90;87.20;;;;;;5157223;27;20412;-78
2021/05/09 00:48:29;;;;;;;7.40;4.20;;;5.90;87.30;;;;;;5157098;27;20026;-79
2021/05/09 00:50:54;;;;;;;5.25;4.38;;;5.90;87.90;;;;;;5157149;27;20038;-78
2021/05/09 00:53:23;;;;;;;9.40;4.55;;;5.90;87.50;;;;;;5157574;27;20026;-77
2021/05/09 00:55:50;;;;;;;7.07;4.15;;;5.90;87.50;;;;;;5156904;27;20022;-78
2021/05/09 00:58:18;;;;;;;6.15;4.20;;;5.90;87.50;;;;;;5157441;27;20106;-78
2021/05/09 01:00:45;;;;;;;5.85;3.80;;;5.90;87.40;;;;;;5156547;27;20030;-78
2021/05/09 01:03:13;;;;;;;5.75;4.40;;;5.90;87.40;;;;;;5156961;27;20060;-78
2021/05/09 01:05:38;;;;;;;5.90;4.60;;;5.90;87.50;;;;;;5156748;27;20026;-78
2021/05/09 01:08:04;;;;;;;7.30;4.50;;;5.90;87.50;;;;;;5156548;27;20019;-78
2021/05/09 01:10:31;;;;;;;6.72;3.97;;;5.90;87.60;;;;;;5155968;27;20027;-78
2021/05/09 01:12:57;;;;;;;6.43;4.65;;;5.80;87.60;;;;;;5157243;27;20102;-78
2021/05/09 01:15:24;;;;;;;8.23;4.30;;;5.90;87.60;;;;;;5156588;27;20477;-78
2021/05/09 01:17:50;;;;;;;6.13;4.13;;;5.90;87.50;;;;;;5138299;27;20460;-78
2021/05/09 01:20:16;;;;;;;8.88;5.18;;;5.80;87.50;;;;;;5156189;27;20034;-78
2021/05/09 01:22:42;;;;;;;8.13;5.00;;;5.80;88.10;;;;;;5156458;27;20018;-78
2021/05/09 01:25:08;;;;;;;9.60;4.80;;;5.80;87.50;;;;;;5156052;27;20114;-78
2021/05/09 01:27:35;;;;;;;7.25;4.30;;;5.80;87.50;;;;;;5154888;27;20037;-78
2021/05/09 01:30:01;;;;;;;5.57;4.45;;;5.90;87.50;;;;;;5156517;27;20367;-78
2021/05/09 01:32:27;;;;;;;5.18;4.03;;;5.90;87.50;;;;;;5156391;27;20019;-78
2021/05/09 01:34:52;;;;;;;5.82;4.30;;;5.80;87.50;;;;;;5156411;27;20015;-78
2021/05/09 01:37:18;;;;;;;5.53;4.05;;;5.80;87.50;;;;;;5156502;27;20030;-79
2021/05/09 01:39:44;;;;;;;6.80;4.10;;;5.80;87.40;;;;;;5156341;27;20030;-79
2021/05/09 01:42:10;;;;;;;5.55;4.15;;;5.80;87.40;;;;;;5156818;27;20060;-79
2021/05/09 01:44:35;;;;;;;5.43;4.13;;;5.80;87.40;;;;;;5156604;27;20444;-79
2021/05/09 01:47:01;;;;;;;7.80;4.70;;;5.80;87.40;;;;;;5155734;27;20030;-79
2021/05/09 01:49:27;;;;;;;7.25;4.55;;;5.80;87.30;;;;;;5156454;27;20027;-79
2021/05/09 01:51:54;;;;;;;7.25;4.60;;;5.80;87.30;;;;;;5156219;27;20380;-79
2021/05/09 01:54:21;;;;;;;6.80;4.20;;;5.80;87.30;;;;;;5156641;27;20026;-79
2021/05/09 01:56:46;;;;;;;8.13;3.95;;;5.70;87.30;;;;;;5156366;27;20058;-79
2021/05/09 01:59:12;;;;;;;5.10;3.85;;;5.70;87.40;;;;;;5155715;27;20549;-79
2021/05/09 02:01:38;;;;;;;7.13;4.75;;;5.70;87.40;;;;;;5155339;27;20026;-79
2021/05/09 02:04:04;;;;;;;8.25;5.18;;;5.70;87.50;;;;;;5156396;27;20046;-79
2021/05/09 02:06:29;;;;;;;7.15;5.25;;;5.70;87.60;;;;;;5155773;27;20062;-79
2021/05/09 02:08:55;;;;;;;7.95;5.00;;;5.70;87.50;;;;;;5137407;27;20026;-80
2021/05/09 02:11:21;;;;;;;10.80;5.07;;;5.60;87.50;;;;;;5155915;27;20031;-78
2021/05/09 02:13:47;;;;;;;11.15;6.90;;;5.60;87.50;;;;;;5155557;27;20113;-79
2021/05/09 02:16:12;;;;;;;15.95;7.30;;;5.60;87.60;;;;;;5155444;27;20098;-79
2021/05/09 02:18:39;;;;;;;12.15;6.18;;;5.60;87.60;;;;;;5155461;27;20022;-79
2021/05/09 02:21:04;;;;;;;13.82;6.07;;;5.60;87.60;;;;;;5156262;27;20054;-79
2021/05/09 02:23:30;;;;;;;8.70;5.90;;;5.60;87.70;;;;;;5159896;27;20050;-80
2021/05/09 02:25:56;;;;;;;7.18;5.38;;;5.60;87.70;;;;;;5159830;27;20383;-78
2021/05/09 02:28:21;;;;;;;8.40;5.63;;;5.60;87.80;;;;;;5160138;27;20083;-78
2021/05/09 02:30:47;;;;;;;7.95;5.20;;;5.60;87.80;;;;;;5160066;27;20452;-78
2021/05/09 02:33:13;;;;;;;5.53;4.28;;;5.60;87.90;;;;;;5160176;27;20019;-78
2021/05/09 02:35:39;;;;;;;6.05;4.35;;;5.60;88.00;;;;;;5160361;27;20023;-78
2021/05/09 02:38:05;;;;;;;6.57;4.32;;;5.60;88.00;;;;;;5160483;27;20051;-77
2021/05/09 02:40:31;;;;;;;8.95;4.75;;;5.60;88.00;;;;;;5160327;27;20042;-79
2021/05/09 02:42:56;;;;;;;7.85;4.35;;;5.60;88.00;;;;;;5160370;27;20037;-78
2021/05/09 02:45:22;;;;;;;6.45;4.35;;;5.60;88.10;;;;;;5160257;27;20019;-78
2021/05/09 02:47:48;;;;;;;6.78;4.40;;;5.60;88.10;;;;;;5160032;27;20027;-78
2021/05/09 02:50:14;;;;;;;6.60;4.55;;;5.60;88.20;;;;;;5160168;27;20106;-78
2021/05/09 02:52:40;;;;;;;8.48;5.05;;;5.70;88.20;;;;;;5159525;27;20019;-78
2021/05/09 02:55:07;;;;;;;6.55;4.40;;;5.70;88.30;;;;;;5159427;27;20023;-78
2021/05/09 02:57:32;;;;;;;6.38;4.30;;;5.80;88.30;;;;;;5159823;27;20027;-79
2021/05/09 02:59:59;;;;;;;5.25;4.03;;;5.80;88.30;;;;;;5159812;27;20056;-79
2021/05/09 03:02:25;;;;;;;5.60;4.05;;;5.80;88.20;;;;;;5159204;27;20529;-79
2021/05/09 03:04:50;;;;;;;5.85;4.18;;;5.90;88.20;;;;;;5159052;27;20027;-78
2021/05/09 03:07:16;;;;;;;6.15;4.40;;;5.90;88.20;;;;;;5159954;27;20023;-78
2021/05/09 03:09:42;;;;;;;6.35;4.32;;;6.00;88.30;;;;;;5160195;27;20030;-79
2021/05/09 03:12:08;;;;;;;10.20;4.45;;;6.00;88.20;;;;;;5159311;27;20029;-79
2021/05/09 03:14:34;;;;;;;6.25;4.00;;;6.10;88.10;;;;;;5159095;27;20027;-79
2021/05/09 03:17:00;;;;;;;8.35;3.70;;;6.10;88.00;;;;;;5159208;27;20049;-78
2021/05/09 03:19:26;;;;;;;11.65;4.50;;;6.20;87.90;;;;;;5158755;27;20030;-78
2021/05/09 03:21:51;;;;;;;6.13;4.20;;;6.20;87.70;;;;;;5158503;27;20029;-79
2021/05/09 03:24:17;;;;;;;4.60;3.80;;;6.30;87.70;;;;;;5158863;27;20019;-79
2021/05/09 03:26:43;;;;;;;6.05;3.83;;;6.40;87.70;;;;;;5158972;27;20067;-79
2021/05/09 03:29:09;;;;;;;5.30;3.50;;;6.40;87.40;;;;;;5158351;27;20054;-79
2021/05/09 03:31:35;;;;;;;5.47;3.50;;;6.50;87.30;;;;;;5158327;27;20110;-79
2021/05/09 03:34:02;;;;;;;6.15;3.80;;;6.60;87.30;;;;;;5158130;27;20031;-78
2021/05/09 03:36:27;;;;;;;5.22;3.60;;;6.60;87.10;;;;;;5158848;27;20030;-78
2021/05/09 03:38:53;;;;;;;5.10;3.35;;;6.70;87.10;;;;;;5158415;27;20038;-79
2021/05/09 03:41:21;;;;;;;8.75;4.57;;;6.80;86.80;;;;;;5158749;27;20030;-79
2021/05/09 03:43:46;;;;;;;5.32;3.15;;;6.90;86.60;;;;;;5158740;27;20484;-80
2021/05/09 03:46:12;;;;;;;4.82;3.33;;;7.00;86.40;;;;;;5158736;27;20030;-78
2021/05/09 03:48:38;;;;;;;6.15;3.10;;;7.10;86.20;;;;;;5158516;27;20353;-77
2021/05/09 03:51:03;;;;;;;5.38;3.42;;;7.10;85.90;;;;;;5158602;27;20042;-78
2021/05/09 03:53:30;;;;;;;4.75;3.28;;;7.20;85.60;;;;;;5158493;27;20026;-79
2021/05/09 03:55:59;;;;;;;3.50;3.20;;;7.30;85.40;;;;;;5158096;27;20034;-78
2021/05/09 03:58:25;;;;;;;5.55;3.45;;;7.30;85.20;;;;;;5158053;27;20030;-80
2021/05/09 04:00:51;;;;;;;5.10;3.20;;;7.40;84.80;;;;;;5157795;27;20448;-79
2021/05/09 04:03:27;;;;;;;4.65;3.45;;;7.50;84.50;;;;;;5158340;27;20050;-79
2021/05/09 04:05:54;;;;;;;5.13;3.03;;;7.60;84.10;;;;;;5159172;27;20432;-80
2021/05/09 04:08:21;;;;;;;4.20;3.30;;;7.60;84.10;;;;;;5140250;27;20490;-79
2021/05/09 04:10:48;;;;;;;8.52;3.60;;;7.70;83.70;;;;;;5158267;27;20027;-79
2021/05/09 04:13:13;;;;;;;4.57;3.47;;;7.80;83.40;;;;;;5140447;27;20018;-79
2021/05/09 04:15:40;;;;;;;4.70;3.22;;;7.80;83.20;;;;;;5158013;27;20424;-79
2021/05/09 04:18:06;;;;;;;3.63;2.55;;;7.90;82.80;;;;;;5158215;27;20368;-82
2021/05/09 04:20:32;;;;;;;5.05;2.90;;;8.00;82.40;;;;;;5139265;27;20034;-81
2021/05/09 04:23:14;;;;;;;4.80;2.80;;;8.00;82.10;;;;;;5157756;27;20026;-81
2021/05/09 04:25:46;;;;;;;5.60;3.17;;;8.10;81.60;;;;;;5157958;27;20026;-79
2021/05/09 04:28:12;;;;;;;2.65;2.45;;;8.10;81.80;;;;;;5157427;27;20018;-80
2021/05/09 04:30:38;;;;;;;4.78;3.05;;;8.20;81.70;;;;;;5157993;27;20026;-80
2021/05/09 04:33:06;;;;;;;3.75;3.03;;;8.30;81.40;;;;;;5157620;27;20357;-79
2021/05/09 04:35:32;;;;;;;2.92;2.63;;;8.40;80.90;;;;;;5157715;27;20030;-79
2021/05/09 04:37:59;;;;;;;4.35;2.85;;;8.50;80.40;;;;;;5157410;27;20018;-80
2021/05/09 04:40:25;;;;;;;2.95;2.45;;;8.60;80.00;;;;;;5156999;27;20468;-79
2021/05/09 04:42:51;;;;;;;3.75;2.63;;;8.60;79.60;;;;;;5158182;27;20107;-80
2021/05/09 04:45:17;;;;;;;4.00;2.88;;;8.70;79.20;;;;;;5156302;27;20023;-80
2021/05/09 04:47:43;;;;;;;4.63;2.83;;;8.70;78.70;;;;;;5157521;27;20027;-79
2021/05/09 04:50:10;;;;;;;3.60;3.00;;;8.80;78.50;;;;;;5157545;27;20091;-79
2021/05/09 04:52:36;;;;;;;3.80;3.30;;;8.90;78.10;;;;;;5157332;27;20027;-80
2021/05/09 04:55:03;;;;;;;3.92;2.88;;;8.90;77.60;;;;;;5157675;27;20030;-79
2021/05/09 04:57:28;;;;;;;4.35;3.05;;;8.90;77.20;;;;;;5157066;27;20387;-80
2021/05/09 04:59:54;;;;;;;4.18;3.08;;;9.00;76.90;;;;;;5157007;27;20031;-80
2021/05/09 05:02:20;;;;;;;3.75;2.80;;;9.00;76.80;;;;;;5156730;27;20084;-79
2021/05/09 05:04:45;;;;;;;4.20;3.20;;;9.10;76.60;;;;;;5157510;27;20054;-78
2021/05/09 05:07:11;;;;;;;4.47;3.20;;;9.10;76.30;;;;;;5157355;27;20041;-80
2021/05/09 05:09:39;;;;;;;6.38;3.20;;;9.20;76.40;;;;;;5156485;27;20026;-80
2021/05/09 05:12:06;;;;;;;5.32;3.00;;;9.30;75.70;;;;;;5156752;27;20022;-80
2021/05/09 05:14:32;;;;;;;6.85;3.30;;;9.30;75.30;;;;;;5137218;27;20043;-79
2021/05/09 05:16:57;;;;;;;4.57;2.95;;;9.40;75.30;;;;;;5156069;27;20101;-80
2021/05/09 05:19:23;;;;;;;3.45;2.90;;;9.40;75.10;;;;;;5156312;27;20037;-79
2021/05/09 05:21:49;;;;;;;5.15;3.25;;;9.50;75.00;;;;;;5156809;27;20164;-80
2021/05/09 05:24:16;;;;;;;7.47;3.00;;;9.60;74.80;;;;;;5156621;27;20349;-79
2021/05/09 05:26:42;;;;;;;4.80;3.13;;;9.70;74.30;;;;;;5156441;27;20087;-81
2021/05/09 05:29:08;;;;;;;3.92;2.90;;;9.80;73.80;;;;;;5156827;27;20440;-80
2021/05/09 05:31:34;;;;;;;4.15;2.90;;;9.80;73.40;;;;;;5156461;27;20023;-80
2021/05/09 05:34:02;;;;;;;4.43;2.78;;;9.90;73.20;;;;;;5155950;27;20038;-79
2021/05/09 05:36:31;;;;;;;4.18;2.97;;;9.90;73.00;;;;;;5156105;27;20367;-81
2021/05/09 05:39:00;;;;;;;5.15;2.55;;;10.00;72.80;;;;;;5156125;27;20503;-80
2021/05/09 05:41:26;;;;;;;4.57;2.63;;;10.10;72.40;;;;;;5156032;27;20118;-81
2021/05/09 05:43:52;;;;;;;3.10;2.70;;;10.20;72.40;;;;;;5155961;27;20019;-79
2021/05/09 05:46:18;;;;;;;3.13;2.25;;;10.30;72.00;;;;;;5156440;27;20368;-79
2021/05/09 05:48:44;;;;;;;4.05;2.80;;;10.40;71.70;;;;;;5155426;27;20039;-79
2021/05/09 05:51:09;;;;;;;4.40;2.95;;;10.50;71.50;;;;;;5155769;27;20030;-80
2021/05/09 05:53:35;;;;;;;4.05;2.50;;;10.60;70.90;;;;;;5155621;27;20035;-82
2021/05/09 05:56:01;;;;;;;3.55;2.60;;;10.60;70.20;;;;;;5155615;27;20030;-80
2021/05/09 05:58:26;;;;;;;6.53;2.65;;;10.60;69.70;;;;;;5156403;27;20023;-80
2021/05/09 06:00:52;;;;;;;3.38;2.80;;;10.60;69.70;;;;;;5155597;27;20023;-81
2021/05/09 06:03:18;;;;;;;4.20;3.15;;;10.70;69.80;;;;;;5156222;27;20030;-79
2021/05/09 06:05:45;;;;;;;3.40;2.88;;;10.80;69.50;;;;;;5155565;27;20050;-80
2021/05/09 06:08:11;;;;;;;2.85;2.33;;;10.90;69.20;;;;;;5155545;27;20027;-81
2021/05/09 06:10:38;;;;;;;3.05;2.85;;;11.00;68.80;;;;;;5155265;27;20037;-80
2021/05/09 06:13:04;;;;;;;3.30;2.88;;;11.00;68.40;;;;;;5155879;27;20459;-80
2021/05/09 06:15:30;;;;;;;3.35;2.90;;;11.10;68.30;;;;;;5155626;27;20019;-80
2021/05/09 06:17:56;;;;;;;4.05;3.20;;;11.20;68.00;;;;;;5155353;27;20047;-79
2021/05/09 06:20:22;;;;;;;3.95;2.50;;;11.40;67.80;;;;;;5155077;27;20125;-79
2021/05/09 06:22:48;;;;;;;2.95;2.45;;;11.40;67.30;;;;;;5155668;27;20107;-80
2021/05/09 06:25:14;;;;;;;2.92;2.25;;;11.50;66.40;;;;;;5155235;27;20018;-80
2021/05/09 06:27:41;;;;;;;5.03;2.38;;;11.50;66.00;;;;;;5137249;27;20029;-80
2021/05/09 06:30:07;;;;;;;3.92;2.22;;;11.60;66.00;;;;;;5155661;27;20118;-79
2021/05/09 06:32:33;;;;;;;4.43;2.55;;;11.70;65.60;;;;;;5155964;27;20031;-80
2021/05/09 06:34:59;;;;;;;2.67;2.28;;;11.80;65.00;;;;;;5153618;27;20088;-79
2021/05/09 06:37:26;;;;;;;3.50;2.55;;;11.90;64.70;;;;;;5155416;27;20026;-79
2021/05/09 06:39:52;;;;;;;2.55;2.10;;;12.00;64.30;;;;;;5155514;27;20034;-79
2021/05/09 06:42:19;;;;;;;7.22;2.28;;;12.00;63.70;;;;;;5155455;27;20066;-79
2021/05/09 06:44:52;;;;;;;2.65;2.05;;;12.10;63.40;;;;;;5155851;27;20018;-80
2021/05/09 06:47:18;;;;;;;2.27;2.07;;;12.20;62.70;;;;;;5155075;27;20026;-79
2021/05/09 06:49:44;;;;;;;3.08;2.28;;;12.20;62.80;;;;;;5155462;27;20049;-80
2021/05/09 06:52:10;;;;;;;2.50;2.30;;;12.20;62.20;;;;;;5155089;27;20380;-80
2021/05/09 06:54:36;;;;;;;4.53;2.20;;;12.20;61.90;;;;;;5155055;27;20034;-80
2021/05/09 06:57:03;;;;;;;2.40;2.20;;;12.30;61.80;;;;;;5155069;27;20023;-80
2021/05/09 06:59:30;;;;;;;2.53;2.17;;;12.30;61.40;;;;;;5154830;27;20046;-79
2021/05/09 07:01:56;;;;;;;3.25;2.15;;;12.40;60.90;;;;;;5154725;27;20041;-79
2021/05/09 07:04:21;;;;;;;3.78;2.05;;;12.40;60.80;;;;;;5154640;27;20023;-81
2021/05/09 07:06:47;;;;;;;4.45;2.47;;;12.50;60.50;;;;;;5156550;27;20441;-81
2021/05/09 07:09:12;;;;;;;3.00;2.00;;;12.50;60.10;;;;;;5138942;27;20027;-81
2021/05/09 07:11:39;;;;;;;2.40;2.10;;;12.60;60.20;;;;;;5158977;27;20023;-80
2021/05/09 07:14:05;;;;;;;3.30;2.03;;;12.70;60.40;;;;;;5158674;27;20030;-79
2021/05/09 07:16:31;;;;;;;2.47;2.28;;;13.00;60.00;;;;;;5157726;27;20031;-80
2021/05/09 07:18:57;;;;;;;4.43;2.20;;;13.10;59.20;;;;;;5158760;27;20031;-80
2021/05/09 07:21:29;;;;;;;2.17;2.00;;;13.20;58.70;;;;;;5140627;27;20070;-80
2021/05/09 07:23:55;;;;;;;2.90;1.90;;;13.30;58.30;;;;;;5158691;27;20452;-80
2021/05/09 07:26:21;;;;;;;2.60;2.13;;;13.40;57.90;;;;;;5158839;27;20155;-80
2021/05/09 07:28:47;;;;;;;2.30;2.10;;;13.50;57.10;;;;;;5158594;27;20055;-81
2021/05/09 07:31:13;;;;;;;2.97;1.63;;;13.50;56.40;;;;;;5157160;27;20073;-81
2021/05/09 07:33:40;;;;;;;2.55;2.15;;;13.50;55.90;;;;;;5158424;27;20080;-81
2021/05/09 07:36:06;;;;;;;2.30;2.10;;;13.50;55.70;;;;;;5158468;27;20022;-82
2021/05/09 07:38:32;;;;;;;2.20;2.00;;;13.60;55.40;;;;;;5139994;27;20022;-81
2021/05/09 07:40:58;;;;;;;1.90;1.73;;;13.60;55.40;;;;;;5140593;27;20078;-80
2021/05/09 07:43:24;;;;;;;2.42;2.00;;;13.70;54.50;;;;;;5158663;27;20125;-80
2021/05/09 07:45:49;;;;;;;2.00;1.90;;;13.80;54.00;;;;;;5158210;27;20023;-80
2021/05/09 07:48:15;;;;;;;2.58;2.15;;;13.90;53.20;;;;;;5158071;27;20027;-83
2021/05/09 07:50:41;;;;;;;2.65;1.63;;;14.10;52.80;;;;;;5158189;27;20056;-79
2021/05/09 07:53:08;;;;;;;2.13;1.90;;;14.20;52.60;;;;;;5158282;27;20379;-81
2021/05/09 07:55:33;;;;;;;2.17;1.77;;;14.30;52.10;;;;;;5157960;27;20034;-81
2021/05/09 07:57:59;;;;;;;2.00;1.60;;;14.50;51.30;;;;;;5157609;27;20023;-81
2021/05/09 08:00:25;;;;;;;3.38;1.73;;;14.60;51.20;;;;;;5157423;27;20078;-81
2021/05/09 08:02:52;;;;;;;5.60;1.92;;;14.80;50.90;;;;;;5158501;27;20027;-81
2021/05/09 08:05:19;;;;;;;2.80;1.90;;;15.00;50.30;;;;;;5158515;27;20022;-80
2021/05/09 08:07:51;;;;;;;3.03;1.70;;;15.10;49.60;;;;;;5158229;27;20029;-81
2021/05/09 08:10:18;;;;;;;3.85;1.90;;;15.20;48.90;;;;;;5157875;27;20034;-79
2021/05/09 08:12:43;;;;;;;2.97;2.30;;;15.50;49.20;;;;;;5157596;27;20027;-80
2021/05/09 08:15:10;;;;;;;3.33;1.85;;;15.80;48.90;;;;;;5157792;27;20478;-80
2021/05/09 08:17:36;;;;;;;1.70;1.60;;;15.90;48.50;;;;;;5157616;27;20033;-81
2021/05/09 08:20:03;;;;;;;2.42;2.08;;;16.10;48.20;;;;;;5157553;27;20404;-80
2021/05/09 08:22:29;;;;;;;2.10;1.70;;;16.50;47.70;;;;;;5156364;27;20029;-80
2021/05/09 08:24:55;;;;;;;2.55;2.22;;;16.60;47.00;;;;;;5157594;27;20098;-80
2021/05/09 08:27:20;;;;;;;3.20;1.52;;;16.80;46.90;;;;;;5157616;27;20027;-81
2021/05/09 08:29:46;;;;;;;2.60;1.80;;;17.20;46.30;;;;;;5158089;27;20026;-80
2021/05/09 08:32:12;;;;;;;3.25;1.98;;;17.50;45.20;;;;;;5157595;27;20037;-80
2021/05/09 08:34:37;;;;;;;2.60;2.10;;;17.60;44.90;;;;;;5157633;27;20046;-80
2021/05/09 08:37:03;;;;;;;2.10;1.90;;;17.90;44.50;;;;;;5157571;27;20019;-80
2021/05/09 08:39:29;;;;;;;2.10;1.85;;;18.10;44.00;;;;;;5157109;27;20031;-80
2021/05/09 08:41:54;;;;;;;3.38;2.00;;;18.50;43.50;;;;;;5157358;27;20087;-80
2021/05/09 08:44:20;;;;;;;2.75;2.13;;;18.90;43.00;;;;;;5157500;27;20376;-80
2021/05/09 08:46:46;;;;;;;2.88;2.03;;;19.00;42.30;;;;;;5157036;27;20087;-81
2021/05/09 08:49:14;;;;;;;2.28;2.08;;;18.70;42.10;;;;;;5157365;27;20054;-79
2021/05/09 08:51:40;;;;;;;2.78;1.98;;;18.70;42.50;;;;;;5157708;27;20030;-80
2021/05/09 08:54:09;;;;;;;6.28;2.58;;;18.90;42.20;;;;;;5156819;27;20027;-80
2021/05/09 08:56:35;;;;;;;2.10;1.90;;;19.30;42.10;;;;;;5156726;27;20406;-81
2021/05/09 08:59:01;;;;;;;2.03;1.65;;;19.90;41.60;;;;;;5156543;27;20039;-80
2021/05/09 09:01:32;;;;;;;3.38;1.90;;;20.50;40.80;;;;;;5156953;27;20372;-80
2021/05/09 09:03:57;;;;;;;2.40;1.88;;;20.50;39.80;;;;;;5156563;27;20044;-80
2021/05/09 09:06:39;;;;;;;2.00;1.80;;;20.30;40.00;;;;;;5157218;27;20019;-81
2021/05/09 09:09:05;;;;;;;2.72;2.20;;;20.40;39.70;;;;;;5156470;27;20023;-80
2021/05/09 09:11:31;;;;;;;1.88;1.77;;;20.40;40.00;;;;;;5156070;27;20031;-81
2021/05/09 09:14:12;;;;;;;1.98;1.80;;;20.90;40.60;;;;;;5156909;27;20027;-80
2021/05/09 09:16:38;;;;;;;2.20;1.92;;;21.10;39.30;;;;;;5154988;27;20468;-80
2021/05/09 09:19:13;;;;;;;2.13;1.92;;;21.70;40.30;;;;;;5156316;27;20030;-79
2021/05/09 09:21:40;;;;;;;3.08;2.17;;;22.40;39.30;;;;;;5156161;27;20018;-81
2021/05/09 09:24:11;;;;;;;1.90;1.80;;;22.70;39.10;;;;;;5156449;27;20035;-81
2021/05/09 09:26:48;;;;;;;1.92;1.83;;;22.90;38.30;;;;;;5155930;27;20476;-80
2021/05/09 09:29:21;;;;;;;2.33;1.85;;;23.20;37.40;;;;;;5156933;27;20030;-80
2021/05/09 09:31:50;;;;;;;1.77;1.67;;;23.10;37.10;;;;;;5155400;27;20022;-81
2021/05/09 09:34:16;;;;;;;2.35;1.63;;;23.70;37.30;;;;;;5155788;27;20026;-80
2021/05/09 09:36:42;;;;;;;1.92;1.80;;;23.90;36.50;;;;;;5156180;27;20037;-81
2021/05/09 09:39:10;;;;;;;1.58;1.48;;;23.60;35.90;;;;;;5155870;27;20035;-80
2021/05/09 09:41:49;;;;;;;1.70;1.60;;;23.30;35.70;;;;;;5156310;27;20034;-80
2021/05/09 09:44:17;;;;;;;1.77;1.67;;;22.80;35.20;;;;;;5155781;27;20019;-80
2021/05/09 09:46:53;;;;;;;2.13;1.92;;;22.50;36.00;;;;;;5156744;27;20349;-81
2021/05/09 09:49:27;;;;;;;2.22;1.70;;;22.00;35.90;;;;;;5155957;27;20528;-80
2021/05/09 09:51:53;;;;;;;2.35;2.15;;;21.70;36.80;;;;;;5155974;27;20072;-80
2021/05/09 09:54:41;;;;;;;2.08;1.95;;;21.70;36.90;;;;;;5155832;27;20018;-81
2021/05/09 09:57:24;;;;;;;2.35;2.15;;;22.40;36.40;;;;;;5155828;27;20058;-81
2021/05/09 10:00:11;;;;;;;2.42;1.65;;;23.70;35.60;;;;;;5137203;27;20387;-81
2021/05/09 10:02:39;;;;;;;2.20;2.00;;;25.00;34.50;;;;;;5155776;27;20072;-81
2021/05/09 10:05:05;;;;;;;2.70;2.50;;;26.10;34.70;;;;;;5155829;27;20019;-80
2021/05/09 10:07:32;;;;;;;2.13;1.92;;;26.90;33.60;;;;;;5155671;27;20023;-82
2021/05/09 10:09:58;;;;;;;2.78;2.33;;;27.50;32.80;;;;;;5155418;27;20027;-81
2021/05/09 10:12:24;;;;;;;2.33;2.10;;;28.20;32.10;;;;;;5155641;27;20036;-81
2021/05/09 10:14:51;;;;;;;3.92;2.30;;;28.90;31.70;;;;;;5155287;27;20054;-81
2021/05/09 10:17:20;;;;;;;2.40;2.20;;;29.60;31.30;;;;;;5155400;27;20022;-81
2021/05/09 10:19:47;;;;;;;2.40;2.20;;;30.00;30.80;;;;;;5155743;27;20399;-80
2021/05/09 10:22:26;;;;;;;3.15;2.30;;;30.50;30.70;;;;;;5155950;27;20023;-81
2021/05/09 10:24:51;;;;;;;2.15;1.83;;;31.10;30.10;;;;;;5155807;27;20038;-82
2021/05/09 10:27:17;;;;;;;1.58;1.48;;;31.00;29.70;;;;;;5156509;27;20023;-80
2021/05/09 10:29:45;;;;;;;1.70;1.60;;;30.90;29.50;;;;;;5155850;27;20511;-80
2021/05/09 10:32:22;;;;;;;2.00;1.90;;;31.00;29.40;;;;;;5155637;27;20043;-81
2021/05/09 10:34:55;;;;;;;2.88;1.88;;;30.90;29.00;;;;;;5136772;27;20023;-81
2021/05/09 10:40:37;;;;;;;5.25;1.80;;;29.80;29.00;;;;;;5155494;27;20043;-82
2021/05/09 10:43:03;;;;;;;1.85;1.75;;;30.50;29.70;;;;;;5142946;27;20070;-80
2021/05/09 10:45:33;;;;;;;2.20;2.00;;;31.10;29.20;;;;;;5159172;27;20031;-79
2021/05/09 10:48:26;;;;;;;1.63;1.52;;;31.60;29.00;;;;;;5159671;27;20026;-80
2021/05/09 10:51:03;;;;;;;1.58;1.40;;;31.50;28.10;;;;;;5159684;27;20105;-80
2021/05/09 10:53:35;;;;;;;2.60;1.80;;;30.60;28.10;;;;;;5159478;27;20113;-80
2021/05/09 10:56:05;;;;;;;2.33;1.73;;;30.40;28.30;;;;;;5160181;27;20519;-81
2021/05/09 10:58:49;;;;;;;2.38;2.13;;;30.30;28.40;;;;;;5159551;27;20027;-80
2021/05/09 11:01:23;;;;;;;2.50;1.90;;;30.30;28.20;;;;;;5159377;27;20048;-81
2021/05/09 11:04:14;;;;;;;1.90;1.58;;;30.90;28.60;;;;;;5159343;27;20023;-80
2021/05/09 11:06:48;;;;;;;1.77;1.67;;;31.70;28.20;;;;;;5159698;27;20047;-81
2021/05/09 11:09:23;;;;;;;2.42;1.45;;;31.40;27.90;;;;;;5158859;27;20026;-81
2021/05/09 11:11:49;;;;;;;3.10;1.70;;;31.40;27.80;;;;;;5158884;27;20109;-80
2021/05/09 11:14:15;;;;;;;1.90;1.80;;;31.00;27.80;;;;;;5159537;27;20057;-80
2021/05/09 11:16:58;;;;;;;1.88;1.77;;;30.40;27.90;;;;;;5159404;27;20083;-81
2021/05/09 11:19:32;;;;;;;3.53;2.10;;;30.10;27.90;;;;;;5159211;27;20037;-80
2021/05/09 11:21:58;;;;;;;2.75;1.63;;;30.60;28.40;;;;;;5159157;27;20110;-80
2021/05/09 11:24:32;;;;;;;4.47;2.13;;;31.40;28.50;;;;;;5159100;27;20054;-83
2021/05/09 11:27:00;;;;;;;1.90;1.80;;;31.70;28.00;;;;;;5158890;27;20023;-81
2021/05/09 11:29:27;;;;;;;2.40;2.10;;;30.80;27.40;;;;;;5158375;27;20049;-80
2021/05/09 11:32:17;;;;;;;2.63;2.20;;;29.90;27.60;;;;;;5158810;27;20019;-81
2021/05/09 11:35:10;;;;;;;3.08;2.00;;;30.30;27.80;;;;;;5158474;27;20485;-80
2021/05/09 11:37:39;;;;;;;2.20;2.00;;;29.80;27.70;;;;;;5155880;27;20045;-80
2021/05/09 11:40:07;;;;;;;1.90;1.58;;;29.20;28.00;;;;;;5158024;27;20183;-79
2021/05/09 11:42:33;;;;;;;1.70;1.60;;;28.50;27.90;;;;;;5159082;27;20039;-80
2021/05/09 11:44:59;;;;;;;3.33;1.80;;;27.80;28.40;;;;;;5158429;27;20451;-81
2021/05/09 11:47:35;;;;;;;2.88;2.00;;;27.80;28.60;;;;;;5140041;27;20034;-80
2021/05/09 11:50:04;;;;;;;2.25;2.05;;;28.10;28.40;;;;;;5158454;27;20030;-81
2021/05/09 11:52:40;;;;;;;2.05;1.90;;;27.90;28.50;;;;;;5158331;27;20027;-80
2021/05/09 11:55:24;;;;;;;2.00;1.83;;;28.70;29.00;;;;;;5157684;27;20025;-80
2021/05/09 11:57:49;;;;;;;2.00;1.90;;;29.50;28.10;;;;;;5158252;27;20027;-80
2021/05/09 12:00:17;;;;;;;3.15;2.20;;;30.30;28.50;;;;;;5158484;27;20038;-81
2021/05/09 12:02:49;;;;;;;2.05;1.85;;;31.00;27.70;;;;;;5157945;27;20030;-80
2021/05/09 12:05:20;;;;;;;2.28;1.92;;;31.30;27.70;;;;;;5157918;27;20051;-81
2021/05/09 12:07:55;;;;;;;1.60;1.50;;;32.10;27.50;;;;;;5158824;27;20114;-80
2021/05/09 12:10:32;;;;;;;1.40;1.30;;;32.60;26.90;;;;;;5157845;27;20035;-80
2021/05/09 12:13:04;;;;;;;1.50;1.40;;;33.00;26.30;;;;;;5158022;27;20127;-81
2021/05/09 12:15:37;;;;;;;1.60;1.50;;;33.10;26.40;;;;;;5139629;27;20033;-80
2021/05/09 12:18:04;;;;;;;3.45;2.03;;;33.40;26.40;;;;;;5158497;27;20115;-81
2021/05/09 12:20:33;;;;;;;4.25;1.67;;;32.70;26.00;;;;;;5157647;27;20034;-80
2021/05/09 12:23:02;;;;;;;2.88;2.17;;;32.20;25.90;;;;;;5157523;27;20476;-81
2021/05/09 12:25:29;;;;;;;1.40;1.30;;;32.10;26.00;;;;;;5158163;27;20123;-81
2021/05/09 12:27:55;;;;;;;1.60;1.50;;;32.40;26.20;;;;;;5159558;27;20027;-82
2021/05/09 12:30:21;;;;;;;2.72;2.42;;;32.30;25.80;;;;;;5157303;27;20375;-80
2021/05/09 12:32:46;;;;;;;1.70;1.60;;;32.30;25.70;;;;;;5157602;27;20022;-82
2021/05/09 12:35:17;;;;;;;2.28;1.77;;;32.40;26.10;;;;;;5157137;27;20106;-81
2021/05/09 12:37:48;;;;;;;1.90;1.70;;;32.90;25.90;;;;;;5157387;27;20019;-80
2021/05/09 12:40:19;;;;;;;1.17;1.17;;;32.90;25.60;;;;;;5157163;27;20031;-80
2021/05/09 12:43:08;;;;;;;1.50;1.30;;;33.00;25.50;;;;;;5155931;27;20031;-81
2021/05/09 12:45:41;;;;;;;2.83;1.60;;;33.40;25.50;;;;;;5156241;27;20102;-80
2021/05/09 12:48:10;;;;;;;1.88;1.70;;;33.90;25.60;;;;;;5157179;27;20026;-79
2021/05/09 12:50:58;;;;;;;2.47;1.90;;;34.30;25.60;;;;;;5156835;27;20424;-79
2021/05/09 12:53:43;;;;;;;1.58;1.48;;;34.80;25.50;;;;;;5156446;27;20054;-80
2021/05/09 12:56:24;;;;;;;2.05;1.88;;;35.30;25.50;;;;;;5156502;27;20444;-81
2021/05/09 12:59:21;;;;;;;5.35;3.08;;;35.80;25.40;;;;;;5156782;27;20143;-80